Flight Track Log - Related Links

Times and Time Zones

All times are in EDT time to prevent confusion due to time zone crossing. See the JBU41 flight status page for this flight to view local times or setup timezone preferences in your user account.

Time Position Orientation Groundspeed Altitude Reporting Facility
EDT Latitude Longitude Course Direction KTS MPH feet Rate Location/Type
Tue 10:55:51 40.6019 -73.7997 146° Southeast 158 182 1,500  Level New York Center
Tue 10:56:51 40.5494 -73.8136 191° South 185 213 2,900 2,115 Climbing New York Center
Tue 10:57:53 40.5222 -73.7414 116° Southeast 202 232 5,800 3,000 Climbing New York Center
Tue 10:58:53 40.5086 -73.6236 99° East 280 322 9,000 2,542 Climbing New York Center
Tue 10:59:51 40.4794 -73.5350 113° Southeast 290 334 10,800 1,932 Climbing New York Center
Tue 11:00:51 40.3786 -73.4764 156° South 299 344 12,800 1,934 Climbing New York Center
Tue 11:01:00 40.1724 -73.3291 146° Southeast  Level FlightAware Approximate
Tue 11:01:52 40.2922 -73.4294 157° South 344 396 14,700  Level New York Center
Tue 11:02:52 40.1814 -73.4389 184° South 374 430 17,000 2,168 Climbing New York Center
Tue 11:03:51 40.0944 -73.5033 210° Southwest 368 423 19,000 1,900 Climbing New York Center
Tue 11:04:52 39.9864 -73.5831 209° Southwest 381 438 20,800 1,587 Climbing New York Center
Tue 11:05:52 39.8908 -73.6575 211° Southwest 407 468 22,200 1,595 Climbing New York Center
Tue 11:06:11 39.8586 -73.6806 209° Southwest 403 464 22,900 1,050 Climbing Washington Center
Tue 11:07:12 39.7619 -73.7561 211° Southwest 408 470 23,600 1,008 Climbing Washington Center
Tue 11:08:10 39.6711 -73.8231 210° Southwest 408 470 24,900 1,322 Climbing Washington Center
Tue 11:09:10 39.5703 -73.9008 211° Southwest 419 482 26,200 1,339 Climbing Washington Center
Tue 11:10:11 39.4650 -73.9786 210° Southwest 425 489 27,600 1,230 Climbing Washington Center
Tue 11:11:12 39.3642 -74.0694 215° Southwest 435 501 28,700 1,059 Climbing Washington Center
Tue 11:12:10 39.2717 -74.1706 220° Southwest 441 507 29,700 1,361 Climbing Washington Center
Tue 11:13:11 39.1853 -74.2767 224° Southwest 447 514 31,400 1,438 Climbing Washington Center
Tue 11:14:11 39.1261 -74.4117 241° Southwest 436 502 32,600 1,091 Climbing Washington Center
Tue 11:15:12 39.0714 -74.5517 243° Southwest 436 502 33,600 958 Climbing Washington Center
Tue 11:16:10 39.0097 -74.6781 238° Southwest 430 495 34,500 1,008 Climbing Washington Center
Tue 11:17:11 38.9125 -74.7647 215° Southwest 423 487 35,600 738 Climbing Washington Center
Tue 11:18:12 38.8128 -74.8431 211° Southwest 418 481 36,000 202 Climbing Washington Center
Tue 11:19:10 38.7153 -74.9239 213° Southwest 418 481 36,000  Level Washington Center
Tue 11:20:11 38.6178 -75.0097 215° Southwest 424 488 36,000  Level Washington Center
Tue 11:21:12 38.5181 -75.0850 211° Southwest 424 488 36,000  Level Washington Center
Tue 11:22:10 38.4164 -75.1650 212° Southwest 432 497 36,000  Level Washington Center
Tue 11:23:11 38.3039 -75.2531 212° Southwest 437 503 36,000  Level Washington Center
Tue 11:24:11 38.2000 -75.3247 208° Southwest 437 503 36,000  Level Washington Center
Tue 11:25:12 38.0958 -75.3939 208° Southwest 431 496 36,000  Level Washington Center
Tue 11:26:11 37.9894 -75.4706 210° Southwest 431 496 36,000  Level Washington Center
Tue 11:27:11 37.8853 -75.5392 207° Southwest 431 496 36,000 -50 Level Washington Center
Tue 11:28:12 37.7831 -75.6156 211° Southwest 431 496 35,900 -50 Descending Washington Center
Tue 11:29:10 37.6767 -75.6864 208° Southwest 436 502 35,900 50 Level Washington Center
Tue 11:30:11 37.5725 -75.7569 208° Southwest 436 502 36,000 49 Climbing Washington Center
Tue 11:31:12 37.4681 -75.8300 209° Southwest 436 502 36,000  Level Washington Center
Tue 11:32:10 37.3636 -75.9003 208° Southwest 436 502 36,000  Level Washington Center
Tue 11:33:10 37.2611 -75.9728 209° Southwest 436 502 36,000  Level Washington Center
Tue 11:34:12 37.1544 -76.0453 208° Southwest 441 507 36,000  Level Washington Center
Tue 11:35:09 37.0519 -76.1175 209° Southwest 436 502 36,000  Level Washington Center
Tue 11:36:10 36.9517 -76.1767 205° Southwest 436 502 36,000  Level Washington Center
Tue 11:37:12 36.8447 -76.2458 207° Southwest 436 502 36,000  Level Washington Center
Tue 11:38:12 36.7400 -76.3178 209° Southwest 436 502 36,000  Level Washington Center
Tue 11:39:09 36.6353 -76.3944 210° Southwest 436 502 36,000  Level Washington Center
Tue 11:40:10 36.5325 -76.4606 207° Southwest 436 502 36,000  Level Washington Center
Tue 11:41:10 36.4256 -76.5317 208° Southwest 436 502 36,000  Level Washington Center
Tue 11:42:11 36.3208 -76.6000 208° Southwest 436 502 36,000  Level Washington Center
Tue 11:43:11 36.2158 -76.6681 208° Southwest 441 507 36,000  Level Washington Center
Tue 11:44:10 36.1131 -76.7386 209° Southwest 441 507 36,000  Level Washington Center
Tue 11:45:11 36.0081 -76.8064 208° Southwest 441 507 36,000  Level Washington Center
Tue 11:46:11 35.9111 -76.8947 216° Southwest 441 507 36,000  Level Washington Center
Tue 11:47:12 35.8225 -76.9881 221° Southwest 436 502 36,000  Level Washington Center
Tue 11:48:10 35.7092 -77.0400 200° South 436 502 36,000  Level Washington Center
Tue 11:49:11 35.6000 -77.0864 199° South 423 487 36,000  Level Washington Center
Tue 11:50:12 35.4869 -77.1303 198° South 423 487 36,000  Level Washington Center
Tue 11:51:12 35.3694 -77.1739 197° South 430 495 36,000  Level Washington Center
Tue 11:52:10 35.2539 -77.2225 199° South 435 501 36,000  Level Washington Center
Tue 11:53:10 35.1386 -77.2658 197° South 440 506 36,000  Level Washington Center
Tue 11:54:11 35.0233 -77.3117 198° South 440 506 36,000  Level Washington Center
Tue 11:55:12 34.9078 -77.3547 197° South 440 506 36,000 -50 Level Washington Center
Tue 11:56:10 34.7967 -77.4031 200° South 440 506 35,900 -51 Descending Washington Center
Tue 11:57:10 34.6792 -77.4458 197° South 440 506 35,900 50 Level Washington Center
Tue 11:58:10 34.5636 -77.4911 198° South 440 506 36,000 50 Climbing Washington Center
Tue 11:59:11 34.4461 -77.5336 197° South 445 512 36,000  Level Washington Center
Tue 12:00:12 34.3306 -77.5789 198° South 445 512 36,000  Level Washington Center
Tue 12:01:13 34.2150 -77.6211 197° South 440 506 36,000  Level Washington Center
Tue 12:02:10 34.0975 -77.6633 197° South 440 506 36,000  Level Washington Center
Tue 12:05:19 33.7111 -77.8119 198° South 453 521 36,000  Level Jacksonville Center
Tue 12:06:19 33.5939 -77.8561 197° South 448 516 36,000  Level Jacksonville Center
Tue 12:07:19 33.4769 -77.9053 199° South 448 516 36,000  Level Jacksonville Center
Tue 12:08:19 33.3642 -77.9514 199° South 443 510 36,000  Level Jacksonville Center
Tue 12:09:19 33.2467 -77.9925 196° South 438 504 36,000  Level Jacksonville Center
Tue 12:10:19 33.1297 -78.0436 200° South 438 504 36,000  Level Jacksonville Center
Tue 12:11:19 33.0283 -78.1183 212° Southwest 424 488 36,000  Level Jacksonville Center
Tue 12:12:19 32.9961 -78.2639 255° West 412 474 36,000 -50 Level Jacksonville Center
Tue 12:13:19 32.9892 -78.4153 267° West 427 491 35,900 -50 Descending Jacksonville Center
Tue 12:14:19 32.9817 -78.5642 267° West 441 507 35,900 50 Level Jacksonville Center
Tue 12:15:19 32.9719 -78.7081 265° West 449 517 36,000 50 Climbing Jacksonville Center
Tue 12:16:19 32.9700 -78.8419 269° West 449 517 36,000 -150 Level Jacksonville Center
Tue 12:17:19 32.9558 -78.9886 263° West 449 517 35,700 -600 Descending Jacksonville Center
Tue 12:18:19 32.8867 -79.1103 236° Southwest 427 491 34,800 -850 Descending Jacksonville Center
Tue 12:19:19 32.8042 -79.2200 228° Southwest 439 505 34,000 -267 Descending Jacksonville Center
Tue 12:21:19 32.6372 -79.4439 229° Southwest 457 526 34,000  Level Jacksonville Center
Tue 12:22:19 32.5486 -79.5631 229° Southwest 457 526 34,000  Level Jacksonville Center
Tue 12:23:19 32.4661 -79.6794 230° Southwest 451 519 34,000  Level Jacksonville Center
Tue 12:24:19 32.3792 -79.7931 228° Southwest 456 525 34,000  Level Jacksonville Center
Tue 12:25:19 32.2942 -79.9067 229° Southwest 461 531 34,000  Level Jacksonville Center
Tue 12:26:20 32.2092 -80.0200 228° Southwest 461 531 34,000  Level Jacksonville Center
Tue 12:27:19 32.1261 -80.1303 228° Southwest 461 531 34,000 -50 Level Jacksonville Center
Tue 12:28:19 32.0408 -80.2433 228° Southwest 456 525 33,900 -50 Descending Jacksonville Center
Tue 12:29:19 31.9553 -80.3558 228° Southwest 462 532 33,900 50 Level Jacksonville Center
Tue 12:30:19 31.8739 -80.4683 230° Southwest 467 537 34,000 50 Climbing Jacksonville Center
Tue 12:31:19 31.7842 -80.5756 225° Southwest 467 537 34,000  Level Jacksonville Center
Tue 12:32:19 31.6981 -80.6633 221° Southwest 460 529 34,000  Level Jacksonville Center
Tue 12:33:19 31.6147 -80.7944 233° Southwest 455 524 34,000  Level Jacksonville Center
Tue 12:34:19 31.5456 -80.9131 236° Southwest 460 529 34,000  Level Jacksonville Center
Tue 12:35:19 31.4847 -81.0264 238° Southwest 461 531 34,000  Level Jacksonville Center
Tue 12:36:19 31.4072 -81.1594 236° Southwest 461 531 34,000  Level Jacksonville Center
Tue 12:37:19 31.3442 -81.2750 237° Southwest 461 531 34,000  Level Jacksonville Center
Tue 12:38:19 31.2703 -81.3978 235° Southwest 466 536 34,000 -50 Level Jacksonville Center
Tue 12:39:19 31.1775 -81.4939 222° Southwest 460 529 33,900  Descending Jacksonville Center
Tue 12:40:19 31.0739 -81.5731 213° Southwest 450 518 34,000 50 Climbing Jacksonville Center
Tue 12:41:20 30.9661 -81.6497 211° Southwest 450 518 34,000  Level Jacksonville Center
Tue 12:42:20 30.8625 -81.7261 212° Southwest 450 518 34,000  Level Jacksonville Center
Tue 12:43:19 30.7567 -81.8047 213° Southwest 450 518 34,000  Level Jacksonville Center
Tue 12:44:19 30.6531 -81.8808 212° Southwest 450 518 34,000  Level Jacksonville Center
Tue 12:45:20 30.5344 -81.9617 210° Southwest 445 512 34,000  Level Jacksonville Center
Tue 12:46:19 30.4264 -82.0397 212° Southwest 453 521 34,000  Level Jacksonville Center
Tue 12:47:20 30.3183 -82.1178 212° Southwest 458 527 34,000 -347 Level Jacksonville Center
Tue 12:48:20 30.1997 -82.1717 201° Southwest 453 521 33,300 -857 Descending Jacksonville Center
Tue 12:49:19 30.0747 -82.1917 188° South 453 521 32,300 -1,008 Descending Jacksonville Center
Tue 12:50:19 29.9492 -82.1856 178° South 453 521 31,300 -1,400 Descending Jacksonville Center
Tue 12:51:19 29.8219 -82.1647 172° South 448 516 29,500 -1,850 Descending Jacksonville Center
Tue 12:52:19 29.6986 -82.1347 168° South 453 521 27,600 -1,600 Descending Jacksonville Center
Tue 12:53:19 29.5772 -82.1044 168° South 453 521 26,300 -2,300 Descending Jacksonville Center
Tue 12:54:19 29.4558 -82.0722 167° South 448 516 23,000 -3,650 Descending Jacksonville Center
Tue 12:55:19 29.3306 -82.0422 168° South 448 516 19,000 -3,300 Descending Jacksonville Center
Tue 12:56:19 29.2092 -82.0122 168° South 448 516 16,400 -2,500 Descending Jacksonville Center
Tue 12:57:19 29.0942 -81.9847 168° South 448 516 14,000 -2,300 Descending Jacksonville Center
Tue 12:58:19 28.9875 -81.9597 168° South 423 487 11,800 -1,400 Descending Jacksonville Center
Tue 12:59:19 28.9019 -81.9392 168° South 372 428 11,200 -450 Descending Jacksonville Center
Tue 13:00:19 28.8450 -81.8733 135° Southeast 299 344 10,900 -209 Descending Jacksonville Center
Tue 13:01:14 28.8000 -81.8000 125° Southeast 270 311 10,800 -756 Descending Orlando TRACON
Tue 13:02:26 28.8000 -81.7167 90° East 247 284 9,300 -857 Descending Orlando TRACON
Tue 13:03:20 28.8000 -81.6333 90° East 245 282 9,000 -632 Descending Orlando TRACON
Tue 13:04:20 28.8000 -81.5667 90° East 217 250 8,100 -1,000 Descending Orlando TRACON
Tue 13:05:20 28.7667 -81.5167 127° Southeast 220 253 7,000 -843 Descending Orlando TRACON
Tue 13:06:21 28.7500 -81.4500 106° East 217 250 6,400 -900 Descending Orlando TRACON
Tue 13:07:20 28.7167 -81.3833 120° Southeast 214 246 5,200 -1,105 Descending Orlando TRACON
Tue 13:08:15 28.6833 -81.3500 139° Southeast 207 238 4,300 -1,101 Descending Orlando TRACON
Tue 13:09:09 28.6333 -81.3333 164° South 208 239 3,200 -900 Descending Orlando TRACON
Tue 13:10:15 28.5833 -81.3333 180° South 196 226 2,500 -750 Descending Orlando TRACON
Tue 13:11:09 28.5333 -81.3333 180° South 193 222 1,700 -895 Descending Orlando TRACON
Tue 13:12:09 28.4833 -81.3333 180° South 146 168 800 -900 Descending Orlando TRACON
Tue 13:14:00 28.4294 -81.3090 180° South  Level Estimated

Login

Don't have an account? Register now (free) for customized features, flight alerts, and more!